sensor_id;sensor_type;location;lat;lon;timestamp;P1;durP1;ratioP1;P2;durP2;ratioP2
44126;SDS011;29786;50.798;7.302;2022-12-13T00:00:21;36.7;;;24;;
44126;SDS011;29786;50.798;7.302;2022-12-13T00:01:21;37.8;;;24.1;;
44126;SDS011;29786;50.798;7.302;2022-12-13T00:02:21;41.1;;;24.2;;
44126;SDS011;29786;50.798;7.302;2022-12-13T00:03:21;35.5;;;23.1;;
44126;SDS011;29786;50.798;7.302;2022-12-13T00:04:22;38.6;;;23.8;;
44126;SDS011;29786;50.798;7.302;2022-12-13T00:05:21;39;;;24.9;;
44126;SDS011;29786;50.798;7.302;2022-12-13T00:06:21;37.2;;;23.1;;
44126;SDS011;29786;50.798;7.302;2022-12-13T00:07:21;38.6;;;22.9;;
44126;SDS011;29786;50.798;7.302;2022-12-13T00:08:21;32.1;;;20;;
44126;SDS011;29786;50.798;7.302;2022-12-13T00:09:21;35.7;;;22.8;;
44126;SDS011;29786;50.798;7.302;2022-12-13T00:10:21;36.6;;;22.4;;
44126;SDS011;29786;50.798;7.302;2022-12-13T00:11:21;35;;;21.7;;
44126;SDS011;29786;50.798;7.302;2022-12-13T00:12:21;32.1;;;21.2;;
44126;SDS011;29786;50.798;7.302;2022-12-13T00:13:21;34.2;;;20.7;;
44126;SDS011;29786;50.798;7.302;2022-12-13T00:14:21;34.1;;;22.1;;
44126;SDS011;29786;50.798;7.302;2022-12-13T00:15:21;34.1;;;20.9;;
44126;SDS011;29786;50.798;7.302;2022-12-13T00:16:22;35.4;;;22.1;;
44126;SDS011;29786;50.798;7.302;2022-12-13T00:17:21;35.7;;;21.6;;
44126;SDS011;29786;50.798;7.302;2022-12-13T00:18:21;36.6;;;20.9;;
44126;SDS011;29786;50.798;7.302;2022-12-13T00:19:21;33;;;20.8;;
44126;SDS011;29786;50.798;7.302;2022-12-13T00:20:21;35.6;;;21.7;;
44126;SDS011;29786;50.798;7.302;2022-12-13T00:21:21;33.4;;;21.5;;
44126;SDS011;29786;50.798;7.302;2022-12-13T00:22:21;34.7;;;20.5;;
44126;SDS011;29786;50.798;7.302;2022-12-13T00:23:21;35.4;;;21.9;;
44126;SDS011;29786;50.798;7.302;2022-12-13T00:24:21;36.3;;;21.3;;
44126;SDS011;29786;50.798;7.302;2022-12-13T00:25:21;34.6;;;20.6;;
44126;SDS011;29786;50.798;7.302;2022-12-13T00:26:23;30;;;19.2;;
44126;SDS011;29786;50.798;7.302;2022-12-13T00:27:21;32.8;;;20.6;;
44126;SDS011;29786;50.798;7.302;2022-12-13T00:28:21;36.3;;;21.4;;
44126;SDS011;29786;50.798;7.302;2022-12-13T00:29:21;29.5;;;19.5;;
44126;SDS011;29786;50.798;7.302;2022-12-13T00:30:21;29.3;;;20.2;;
44126;SDS011;29786;50.798;7.302;2022-12-13T00:31:21;33.3;;;19.9;;
44126;SDS011;29786;50.798;7.302;2022-12-13T00:32:21;29.9;;;19.9;;
44126;SDS011;29786;50.798;7.302;2022-12-13T00:33:21;32.8;;;20.3;;
44126;SDS011;29786;50.798;7.302;2022-12-13T00:34:21;33.2;;;20.9;;
44126;SDS011;29786;50.798;7.302;2022-12-13T00:35:21;34.4;;;20.9;;
44126;SDS011;29786;50.798;7.302;2022-12-13T00:36:21;34.2;;;20.7;;
44126;SDS011;29786;50.798;7.302;2022-12-13T00:37:21;34.5;;;20;;
44126;SDS011;29786;50.798;7.302;2022-12-13T00:38:21;33.1;;;19.9;;
44126;SDS011;29786;50.798;7.302;2022-12-13T00:39:21;30.9;;;19.2;;
44126;SDS011;29786;50.798;7.302;2022-12-13T00:40:21;32.6;;;20;;
44126;SDS011;29786;50.798;7.302;2022-12-13T00:41:21;31.7;;;19.8;;
44126;SDS011;29786;50.798;7.302;2022-12-13T00:42:21;33.2;;;20.9;;
44126;SDS011;29786;50.798;7.302;2022-12-13T00:43:21;33.4;;;20.6;;
44126;SDS011;29786;50.798;7.302;2022-12-13T00:44:21;31.7;;;19.5;;
44126;SDS011;29786;50.798;7.302;2022-12-13T00:45:21;31.8;;;19.4;;
44126;SDS011;29786;50.798;7.302;2022-12-13T00:46:21;34.3;;;20.4;;
44126;SDS011;29786;50.798;7.302;2022-12-13T00:47:21;30.6;;;19.2;;
44126;SDS011;29786;50.798;7.302;2022-12-13T00:48:21;31.7;;;20.4;;
44126;SDS011;29786;50.798;7.302;2022-12-13T00:49:21;32.1;;;20.5;;
44126;SDS011;29786;50.798;7.302;2022-12-13T00:50:21;33.8;;;19.8;;
44126;SDS011;29786;50.798;7.302;2022-12-13T00:51:22;31.6;;;19.3;;
44126;SDS011;29786;50.798;7.302;2022-12-13T00:52:21;31.5;;;20.3;;
44126;SDS011;29786;50.798;7.302;2022-12-13T00:53:21;33.9;;;20.5;;
44126;SDS011;29786;50.798;7.302;2022-12-13T00:54:22;32.2;;;20.1;;
44126;SDS011;29786;50.798;7.302;2022-12-13T00:55:21;31.4;;;19.5;;
44126;SDS011;29786;50.798;7.302;2022-12-13T00:56:22;30.4;;;19.5;;
44126;SDS011;29786;50.798;7.302;2022-12-13T00:57:21;33.5;;;19.5;;
44126;SDS011;29786;50.798;7.302;2022-12-13T00:58:21;33.7;;;20.3;;
44126;SDS011;29786;50.798;7.302;2022-12-13T00:59:21;28.5;;;18.2;;
44126;SDS011;29786;50.798;7.302;2022-12-13T01:00:21;32.7;;;19.4;;
44126;SDS011;29786;50.798;7.302;2022-12-13T01:01:23;31.8;;;19.4;;
44126;SDS011;29786;50.798;7.302;2022-12-13T01:02:21;30.2;;;19.2;;
44126;SDS011;29786;50.798;7.302;2022-12-13T01:03:21;30.7;;;18.9;;
44126;SDS011;29786;50.798;7.302;2022-12-13T01:04:21;33.7;;;20.8;;
44126;SDS011;29786;50.798;7.302;2022-12-13T01:05:21;33.2;;;20.6;;
44126;SDS011;29786;50.798;7.302;2022-12-13T01:06:22;30.2;;;20;;
44126;SDS011;29786;50.798;7.302;2022-12-13T01:07:21;34.9;;;20.8;;
44126;SDS011;29786;50.798;7.302;2022-12-13T01:08:21;31;;;20.4;;
44126;SDS011;29786;50.798;7.302;2022-12-13T01:09:22;30.9;;;20.1;;
44126;SDS011;29786;50.798;7.302;2022-12-13T01:10:21;30.3;;;18.6;;
44126;SDS011;29786;50.798;7.302;2022-12-13T01:11:21;30.4;;;19.7;;
44126;SDS011;29786;50.798;7.302;2022-12-13T01:12:21;30.4;;;18.9;;
44126;SDS011;29786;50.798;7.302;2022-12-13T01:13:21;32.5;;;19.2;;
44126;SDS011;29786;50.798;7.302;2022-12-13T01:14:21;28.5;;;18.1;;
44126;SDS011;29786;50.798;7.302;2022-12-13T01:15:21;32.2;;;19;;
44126;SDS011;29786;50.798;7.302;2022-12-13T01:16:21;29.4;;;19.1;;
44126;SDS011;29786;50.798;7.302;2022-12-13T01:17:21;32.7;;;20.5;;
44126;SDS011;29786;50.798;7.302;2022-12-13T01:18:21;30.5;;;19.9;;
44126;SDS011;29786;50.798;7.302;2022-12-13T01:19:21;33.6;;;20.2;;
44126;SDS011;29786;50.798;7.302;2022-12-13T01:20:21;33.2;;;20.2;;
44126;SDS011;29786;50.798;7.302;2022-12-13T01:21:21;32.4;;;20.2;;
44126;SDS011;29786;50.798;7.302;2022-12-13T01:22:21;32.3;;;20.7;;
44126;SDS011;29786;50.798;7.302;2022-12-13T01:23:21;32.6;;;19.9;;
44126;SDS011;29786;50.798;7.302;2022-12-13T01:24:21;34;;;20.1;;
44126;SDS011;29786;50.798;7.302;2022-12-13T01:25:21;34.2;;;20.2;;
44126;SDS011;29786;50.798;7.302;2022-12-13T01:26:21;35.7;;;21.3;;
44126;SDS011;29786;50.798;7.302;2022-12-13T01:27:21;31.7;;;20.1;;
44126;SDS011;29786;50.798;7.302;2022-12-13T01:28:21;31.7;;;19.1;;
44126;SDS011;29786;50.798;7.302;2022-12-13T01:29:21;32.9;;;19.5;;
44126;SDS011;29786;50.798;7.302;2022-12-13T01:30:21;29.6;;;19.2;;
44126;SDS011;29786;50.798;7.302;2022-12-13T01:31:21;33.6;;;20.9;;
44126;SDS011;29786;50.798;7.302;2022-12-13T01:32:21;33.6;;;20.7;;
44126;SDS011;29786;50.798;7.302;2022-12-13T01:33:21;35.6;;;21.6;;
44126;SDS011;29786;50.798;7.302;2022-12-13T01:34:21;31.9;;;19.9;;
44126;SDS011;29786;50.798;7.302;2022-12-13T01:35:21;32.2;;;19.9;;
44126;SDS011;29786;50.798;7.302;2022-12-13T01:36:21;34.4;;;21.4;;
44126;SDS011;29786;50.798;7.302;2022-12-13T01:37:21;37.2;;;21.6;;
44126;SDS011;29786;50.798;7.302;2022-12-13T01:38:21;33.5;;;21.1;;
44126;SDS011;29786;50.798;7.302;2022-12-13T01:39:21;31.1;;;20.1;;
44126;SDS011;29786;50.798;7.302;2022-12-13T01:40:21;33.7;;;20.5;;
44126;SDS011;29786;50.798;7.302;2022-12-13T01:41:21;33;;;20.2;;
44126;SDS011;29786;50.798;7.302;2022-12-13T01:42:21;34.2;;;20.6;;
44126;SDS011;29786;50.798;7.302;2022-12-13T01:43:21;32.1;;;20.5;;
44126;SDS011;29786;50.798;7.302;2022-12-13T01:45:23;32.3;;;20.1;;
44126;SDS011;29786;50.798;7.302;2022-12-13T01:45:26;34;;;20.6;;
44126;SDS011;29786;50.798;7.302;2022-12-13T01:46:21;33.6;;;21.1;;
44126;SDS011;29786;50.798;7.302;2022-12-13T01:47:30;36.7;;;21.4;;
44126;SDS011;29786;50.798;7.302;2022-12-13T01:48:23;35.3;;;20.7;;
44126;SDS011;29786;50.798;7.302;2022-12-13T01:49:21;35.7;;;21.5;;
44126;SDS011;29786;50.798;7.302;2022-12-13T01:50:22;30.6;;;19.5;;
44126;SDS011;29786;50.798;7.302;2022-12-13T01:51:23;34.5;;;20.6;;
44126;SDS011;29786;50.798;7.302;2022-12-13T01:52:21;34.7;;;21.1;;
44126;SDS011;29786;50.798;7.302;2022-12-13T01:53:22;31.1;;;20.1;;
44126;SDS011;29786;50.798;7.302;2022-12-13T01:54:22;28.5;;;19.3;;
44126;SDS011;29786;50.798;7.302;2022-12-13T01:55:22;31.5;;;19.9;;
44126;SDS011;29786;50.798;7.302;2022-12-13T01:56:22;33.6;;;21.6;;
44126;SDS011;29786;50.798;7.302;2022-12-13T01:57:21;31.2;;;19.6;;
44126;SDS011;29786;50.798;7.302;2022-12-13T01:58:21;32;;;20.1;;
44126;SDS011;29786;50.798;7.302;2022-12-13T01:59:21;28.9;;;18.8;;
44126;SDS011;29786;50.798;7.302;2022-12-13T02:00:21;33.1;;;20;;
44126;SDS011;29786;50.798;7.302;2022-12-13T02:01:21;31.7;;;20;;
44126;SDS011;29786;50.798;7.302;2022-12-13T02:02:21;31.5;;;19;;
44126;SDS011;29786;50.798;7.302;2022-12-13T02:03:21;31.8;;;20.4;;
44126;SDS011;29786;50.798;7.302;2022-12-13T02:04:24;33.4;;;19.8;;
44126;SDS011;29786;50.798;7.302;2022-12-13T02:06:24;32;;;19.8;;
44126;SDS011;29786;50.798;7.302;2022-12-13T02:07:23;31.3;;;18.6;;
44126;SDS011;29786;50.798;7.302;2022-12-13T02:08:21;33.9;;;20.5;;
44126;SDS011;29786;50.798;7.302;2022-12-13T02:09:21;31.1;;;19;;
44126;SDS011;29786;50.798;7.302;2022-12-13T02:10:21;32.8;;;20;;
44126;SDS011;29786;50.798;7.302;2022-12-13T02:11:21;33.4;;;20.9;;
44126;SDS011;29786;50.798;7.302;2022-12-13T02:12:21;30.3;;;19.3;;
44126;SDS011;29786;50.798;7.302;2022-12-13T02:13:21;31;;;19.7;;
44126;SDS011;29786;50.798;7.302;2022-12-13T02:14:21;31;;;19;;
44126;SDS011;29786;50.798;7.302;2022-12-13T02:15:21;26.4;;;17.6;;
44126;SDS011;29786;50.798;7.302;2022-12-13T02:16:25;32.1;;;20.7;;
44126;SDS011;29786;50.798;7.302;2022-12-13T02:17:26;30.8;;;19.8;;
44126;SDS011;29786;50.798;7.302;2022-12-13T02:18:24;32.9;;;20;;
44126;SDS011;29786;50.798;7.302;2022-12-13T02:19:28;33.3;;;20;;
44126;SDS011;29786;50.798;7.302;2022-12-13T02:20:40;33.7;;;19.7;;
44126;SDS011;29786;50.798;7.302;2022-12-13T02:21:23;32.6;;;20.2;;
44126;SDS011;29786;50.798;7.302;2022-12-13T02:22:30;30.2;;;18.6;;
44126;SDS011;29786;50.798;7.302;2022-12-13T02:23:30;32.8;;;19.2;;
44126;SDS011;29786;50.798;7.302;2022-12-13T02:24:26;33.5;;;19.8;;
44126;SDS011;29786;50.798;7.302;2022-12-13T02:25:30;32.1;;;20.6;;
44126;SDS011;29786;50.798;7.302;2022-12-13T02:26:36;36.5;;;23.2;;
44126;SDS011;29786;50.798;7.302;2022-12-13T02:27:27;40.3;;;24.3;;
44126;SDS011;29786;50.798;7.302;2022-12-13T02:29:25;37.5;;;24.5;;
44126;SDS011;29786;50.798;7.302;2022-12-13T02:29:32;41.2;;;25.2;;
44126;SDS011;29786;50.798;7.302;2022-12-13T02:30:22;43;;;25.7;;
44126;SDS011;29786;50.798;7.302;2022-12-13T02:31:25;38.3;;;24.2;;
44126;SDS011;29786;50.798;7.302;2022-12-13T02:32:27;34.8;;;22.9;;
44126;SDS011;29786;50.798;7.302;2022-12-13T02:33:25;33;;;21.8;;
44126;SDS011;29786;50.798;7.302;2022-12-13T02:34:37;32;;;20.1;;
44126;SDS011;29786;50.798;7.302;2022-12-13T02:35:22;32.3;;;20.7;;
44126;SDS011;29786;50.798;7.302;2022-12-13T02:36:40;34;;;20.2;;
44126;SDS011;29786;50.798;7.302;2022-12-13T02:38:23;35.2;;;20.7;;
44126;SDS011;29786;50.798;7.302;2022-12-13T02:38:27;33.1;;;19.5;;
44126;SDS011;29786;50.798;7.302;2022-12-13T02:39:23;30.9;;;19;;
44126;SDS011;29786;50.798;7.302;2022-12-13T02:40:23;31.5;;;19.1;;
44126;SDS011;29786;50.798;7.302;2022-12-13T02:41:25;33.8;;;20.7;;
44126;SDS011;29786;50.798;7.302;2022-12-13T02:42:23;31.8;;;20.6;;
44126;SDS011;29786;50.798;7.302;2022-12-13T02:43:22;30.5;;;19.4;;
44126;SDS011;29786;50.798;7.302;2022-12-13T02:44:22;31.7;;;19.3;;
44126;SDS011;29786;50.798;7.302;2022-12-13T02:45:23;29.5;;;18;;
44126;SDS011;29786;50.798;7.302;2022-12-13T02:46:21;34.8;;;20;;
44126;SDS011;29786;50.798;7.302;2022-12-13T02:47:21;31.1;;;18.2;;
44126;SDS011;29786;50.798;7.302;2022-12-13T02:48:22;32.9;;;20.1;;
44126;SDS011;29786;50.798;7.302;2022-12-13T02:49:21;29.9;;;19.1;;
44126;SDS011;29786;50.798;7.302;2022-12-13T02:50:21;29.6;;;19.2;;
44126;SDS011;29786;50.798;7.302;2022-12-13T02:51:21;30.6;;;18.8;;
44126;SDS011;29786;50.798;7.302;2022-12-13T02:52:21;29.8;;;18.2;;
44126;SDS011;29786;50.798;7.302;2022-12-13T02:53:21;29.3;;;18.8;;
44126;SDS011;29786;50.798;7.302;2022-12-13T02:54:21;27.9;;;18.4;;
44126;SDS011;29786;50.798;7.302;2022-12-13T02:55:21;30.9;;;19.3;;
44126;SDS011;29786;50.798;7.302;2022-12-13T02:56:21;32.7;;;19.3;;
44126;SDS011;29786;50.798;7.302;2022-12-13T02:57:38;26.9;;;18.1;;
44126;SDS011;29786;50.798;7.302;2022-12-13T02:58:21;30.5;;;18.8;;
44126;SDS011;29786;50.798;7.302;2022-12-13T02:59:21;30.3;;;18.8;;
44126;SDS011;29786;50.798;7.302;2022-12-13T03:00:22;32.4;;;19.7;;
44126;SDS011;29786;50.798;7.302;2022-12-13T03:02:23;30.7;;;19;;
44126;SDS011;29786;50.798;7.302;2022-12-13T03:03:24;35.5;;;20.7;;
44126;SDS011;29786;50.798;7.302;2022-12-13T03:04:26;33.2;;;20.3;;
44126;SDS011;29786;50.798;7.302;2022-12-13T03:06:39;31.7;;;19;;
44126;SDS011;29786;50.798;7.302;2022-12-13T03:07:23;31.1;;;18.6;;
44126;SDS011;29786;50.798;7.302;2022-12-13T03:08:23;31.5;;;19.5;;
44126;SDS011;29786;50.798;7.302;2022-12-13T03:09:57;30.4;;;19.3;;
44126;SDS011;29786;50.798;7.302;2022-12-13T03:10:22;31.8;;;20.6;;
44126;SDS011;29786;50.798;7.302;2022-12-13T03:11:21;34.5;;;19.9;;
44126;SDS011;29786;50.798;7.302;2022-12-13T03:12:24;32.8;;;20.9;;
44126;SDS011;29786;50.798;7.302;2022-12-13T03:13:24;30.9;;;18.9;;
44126;SDS011;29786;50.798;7.302;2022-12-13T03:14:21;32.5;;;19.8;;
44126;SDS011;29786;50.798;7.302;2022-12-13T03:15:26;31.1;;;19.8;;
44126;SDS011;29786;50.798;7.302;2022-12-13T03:16:39;34.8;;;20.6;;
44126;SDS011;29786;50.798;7.302;2022-12-13T03:17:21;32.8;;;20.1;;
44126;SDS011;29786;50.798;7.302;2022-12-13T03:18:21;34.2;;;20;;
44126;SDS011;29786;50.798;7.302;2022-12-13T03:19:21;30.4;;;19.3;;
44126;SDS011;29786;50.798;7.302;2022-12-13T03:20:22;36.1;;;20;;
44126;SDS011;29786;50.798;7.302;2022-12-13T03:21:21;31.7;;;19.9;;
44126;SDS011;29786;50.798;7.302;2022-12-13T03:22:21;32.1;;;19.6;;
44126;SDS011;29786;50.798;7.302;2022-12-13T03:23:21;34.1;;;20.3;;
44126;SDS011;29786;50.798;7.302;2022-12-13T03:24:21;33.8;;;20.8;;
44126;SDS011;29786;50.798;7.302;2022-12-13T03:25:22;33.4;;;19.4;;
44126;SDS011;29786;50.798;7.302;2022-12-13T03:26:23;31;;;18.6;;
44126;SDS011;29786;50.798;7.302;2022-12-13T03:27:21;29.2;;;18.6;;
44126;SDS011;29786;50.798;7.302;2022-12-13T03:28:21;35.3;;;19.4;;
44126;SDS011;29786;50.798;7.302;2022-12-13T03:29:21;31.8;;;19.9;;
44126;SDS011;29786;50.798;7.302;2022-12-13T03:30:21;33.5;;;19.5;;
44126;SDS011;29786;50.798;7.302;2022-12-13T03:31:21;34.2;;;20.1;;
44126;SDS011;29786;50.798;7.302;2022-12-13T03:32:21;33.2;;;20;;
44126;SDS011;29786;50.798;7.302;2022-12-13T03:33:21;32.9;;;20.1;;
44126;SDS011;29786;50.798;7.302;2022-12-13T03:34:21;33.3;;;19.9;;
44126;SDS011;29786;50.798;7.302;2022-12-13T03:35:21;31.6;;;20;;
44126;SDS011;29786;50.798;7.302;2022-12-13T03:36:21;32.3;;;20.2;;
44126;SDS011;29786;50.798;7.302;2022-12-13T03:37:21;32.5;;;19.7;;
44126;SDS011;29786;50.798;7.302;2022-12-13T03:38:21;33.5;;;19.9;;
44126;SDS011;29786;50.798;7.302;2022-12-13T03:39:21;29.4;;;19.1;;
44126;SDS011;29786;50.798;7.302;2022-12-13T03:40:21;31.6;;;19.5;;
44126;SDS011;29786;50.798;7.302;2022-12-13T03:41:21;32.3;;;19.8;;
44126;SDS011;29786;50.798;7.302;2022-12-13T03:42:21;30.8;;;18.7;;
44126;SDS011;29786;50.798;7.302;2022-12-13T03:43:21;31.4;;;19.9;;
44126;SDS011;29786;50.798;7.302;2022-12-13T03:44:21;33.1;;;20.1;;
44126;SDS011;29786;50.798;7.302;2022-12-13T03:45:21;32;;;19.9;;
44126;SDS011;29786;50.798;7.302;2022-12-13T03:46:21;32.9;;;19.8;;
44126;SDS011;29786;50.798;7.302;2022-12-13T03:47:21;35.1;;;19.8;;
44126;SDS011;29786;50.798;7.302;2022-12-13T03:48:21;31;;;20.1;;
44126;SDS011;29786;50.798;7.302;2022-12-13T03:49:21;34.5;;;21.1;;
44126;SDS011;29786;50.798;7.302;2022-12-13T03:50:21;34.6;;;20.4;;
44126;SDS011;29786;50.798;7.302;2022-12-13T03:51:21;34.6;;;20.8;;
44126;SDS011;29786;50.798;7.302;2022-12-13T03:52:21;32.2;;;19.9;;
44126;SDS011;29786;50.798;7.302;2022-12-13T03:53:21;34.1;;;20;;
44126;SDS011;29786;50.798;7.302;2022-12-13T03:54:21;34.1;;;20.2;;
44126;SDS011;29786;50.798;7.302;2022-12-13T03:55:21;32.2;;;19.3;;
44126;SDS011;29786;50.798;7.302;2022-12-13T03:56:21;36.7;;;20.9;;
44126;SDS011;29786;50.798;7.302;2022-12-13T03:57:21;34.8;;;21;;
44126;SDS011;29786;50.798;7.302;2022-12-13T03:58:21;32;;;18.9;;
44126;SDS011;29786;50.798;7.302;2022-12-13T03:59:21;35.4;;;21;;
44126;SDS011;29786;50.798;7.302;2022-12-13T04:00:21;36.1;;;20.3;;
44126;SDS011;29786;50.798;7.302;2022-12-13T04:01:21;31.3;;;19.3;;
44126;SDS011;29786;50.798;7.302;2022-12-13T04:02:21;33.2;;;19.2;;
44126;SDS011;29786;50.798;7.302;2022-12-13T04:03:21;35.1;;;21.6;;
44126;SDS011;29786;50.798;7.302;2022-12-13T04:04:21;32.5;;;19.8;;
44126;SDS011;29786;50.798;7.302;2022-12-13T04:05:21;34.4;;;20.5;;
44126;SDS011;29786;50.798;7.302;2022-12-13T04:06:21;30.8;;;20.1;;
44126;SDS011;29786;50.798;7.302;2022-12-13T04:07:21;30.3;;;20;;
44126;SDS011;29786;50.798;7.302;2022-12-13T04:08:21;32.1;;;19.3;;
44126;SDS011;29786;50.798;7.302;2022-12-13T04:09:21;34.9;;;20.1;;
44126;SDS011;29786;50.798;7.302;2022-12-13T04:10:21;32.9;;;20.2;;
44126;SDS011;29786;50.798;7.302;2022-12-13T04:11:21;33.9;;;20.6;;
44126;SDS011;29786;50.798;7.302;2022-12-13T04:12:21;32.1;;;18.5;;
44126;SDS011;29786;50.798;7.302;2022-12-13T04:13:21;33.9;;;20.5;;
44126;SDS011;29786;50.798;7.302;2022-12-13T04:14:21;31.8;;;19.5;;
44126;SDS011;29786;50.798;7.302;2022-12-13T04:15:21;34;;;20.5;;
44126;SDS011;29786;50.798;7.302;2022-12-13T04:16:21;31.5;;;19.1;;
44126;SDS011;29786;50.798;7.302;2022-12-13T04:17:21;33.3;;;19.9;;
44126;SDS011;29786;50.798;7.302;2022-12-13T04:18:21;32.9;;;20.8;;
44126;SDS011;29786;50.798;7.302;2022-12-13T04:19:21;36;;;20.4;;
44126;SDS011;29786;50.798;7.302;2022-12-13T04:20:21;29.7;;;19.3;;
44126;SDS011;29786;50.798;7.302;2022-12-13T04:21:21;32.9;;;20.8;;
44126;SDS011;29786;50.798;7.302;2022-12-13T04:22:21;30.9;;;19.2;;
44126;SDS011;29786;50.798;7.302;2022-12-13T04:23:21;32.5;;;20.1;;
44126;SDS011;29786;50.798;7.302;2022-12-13T04:24:21;33.2;;;19.9;;
44126;SDS011;29786;50.798;7.302;2022-12-13T04:25:21;34.7;;;20.7;;
44126;SDS011;29786;50.798;7.302;2022-12-13T04:26:21;33.5;;;20;;
44126;SDS011;29786;50.798;7.302;2022-12-13T04:27:21;30.9;;;19.8;;
44126;SDS011;29786;50.798;7.302;2022-12-13T04:28:21;34.2;;;19.7;;
44126;SDS011;29786;50.798;7.302;2022-12-13T04:29:21;35.4;;;21.2;;
44126;SDS011;29786;50.798;7.302;2022-12-13T04:30:21;33;;;19.6;;
44126;SDS011;29786;50.798;7.302;2022-12-13T04:31:21;34.2;;;19.6;;
44126;SDS011;29786;50.798;7.302;2022-12-13T04:32:21;33.1;;;19.5;;
44126;SDS011;29786;50.798;7.302;2022-12-13T04:33:21;30.3;;;18.7;;
44126;SDS011;29786;50.798;7.302;2022-12-13T04:34:21;29.6;;;17.8;;
44126;SDS011;29786;50.798;7.302;2022-12-13T04:35:21;31.4;;;18.9;;
44126;SDS011;29786;50.798;7.302;2022-12-13T04:36:21;30.5;;;19.2;;
44126;SDS011;29786;50.798;7.302;2022-12-13T04:37:21;35.4;;;20.1;;
44126;SDS011;29786;50.798;7.302;2022-12-13T04:38:21;32;;;19.6;;
44126;SDS011;29786;50.798;7.302;2022-12-13T04:39:21;30;;;18.5;;
44126;SDS011;29786;50.798;7.302;2022-12-13T04:40:21;31.5;;;19.4;;
44126;SDS011;29786;50.798;7.302;2022-12-13T04:41:21;32.7;;;20.4;;
44126;SDS011;29786;50.798;7.302;2022-12-13T04:42:21;29.9;;;17.9;;
44126;SDS011;29786;50.798;7.302;2022-12-13T04:43:21;37.2;;;21.4;;
44126;SDS011;29786;50.798;7.302;2022-12-13T04:44:21;31.3;;;19.2;;
44126;SDS011;29786;50.798;7.302;2022-12-13T04:45:21;29.5;;;18.3;;
44126;SDS011;29786;50.798;7.302;2022-12-13T04:46:21;29.8;;;19;;
44126;SDS011;29786;50.798;7.302;2022-12-13T04:47:21;31;;;19.3;;
44126;SDS011;29786;50.798;7.302;2022-12-13T04:48:21;31.5;;;19;;
44126;SDS011;29786;50.798;7.302;2022-12-13T04:49:21;33.1;;;19.3;;
44126;SDS011;29786;50.798;7.302;2022-12-13T04:50:21;34;;;19.7;;
44126;SDS011;29786;50.798;7.302;2022-12-13T04:51:21;30.3;;;19.1;;
44126;SDS011;29786;50.798;7.302;2022-12-13T04:52:21;31.8;;;18.7;;
44126;SDS011;29786;50.798;7.302;2022-12-13T04:53:21;32.6;;;19.4;;
44126;SDS011;29786;50.798;7.302;2022-12-13T04:54:21;29.7;;;18.3;;
44126;SDS011;29786;50.798;7.302;2022-12-13T04:55:21;32.1;;;19.3;;
44126;SDS011;29786;50.798;7.302;2022-12-13T04:56:21;31.9;;;18.6;;
44126;SDS011;29786;50.798;7.302;2022-12-13T04:57:21;32.8;;;18.8;;
44126;SDS011;29786;50.798;7.302;2022-12-13T04:58:21;31.1;;;19.1;;
44126;SDS011;29786;50.798;7.302;2022-12-13T04:59:21;30;;;18.3;;
44126;SDS011;29786;50.798;7.302;2022-12-13T05:00:21;34.9;;;19.1;;
44126;SDS011;29786;50.798;7.302;2022-12-13T05:01:21;35.5;;;20;;
44126;SDS011;29786;50.798;7.302;2022-12-13T05:02:21;32;;;18.9;;
44126;SDS011;29786;50.798;7.302;2022-12-13T05:03:21;32.6;;;19.2;;
44126;SDS011;29786;50.798;7.302;2022-12-13T05:04:21;30.1;;;18.5;;
44126;SDS011;29786;50.798;7.302;2022-12-13T05:05:21;31;;;19;;
44126;SDS011;29786;50.798;7.302;2022-12-13T05:06:21;33.8;;;19.2;;
44126;SDS011;29786;50.798;7.302;2022-12-13T05:07:21;32.1;;;19.7;;
44126;SDS011;29786;50.798;7.302;2022-12-13T05:08:21;31.3;;;19.4;;
44126;SDS011;29786;50.798;7.302;2022-12-13T05:09:21;33.5;;;19.1;;
44126;SDS011;29786;50.798;7.302;2022-12-13T05:10:21;34;;;19;;
44126;SDS011;29786;50.798;7.302;2022-12-13T05:11:21;29.4;;;17.8;;
44126;SDS011;29786;50.798;7.302;2022-12-13T05:12:21;30.7;;;18.2;;
44126;SDS011;29786;50.798;7.302;2022-12-13T05:13:21;31.5;;;18.5;;
44126;SDS011;29786;50.798;7.302;2022-12-13T05:14:21;29.4;;;17.5;;
44126;SDS011;29786;50.798;7.302;2022-12-13T05:15:21;28.5;;;17.5;;
44126;SDS011;29786;50.798;7.302;2022-12-13T05:16:21;31.6;;;19.3;;
44126;SDS011;29786;50.798;7.302;2022-12-13T05:17:21;29.8;;;17.9;;
44126;SDS011;29786;50.798;7.302;2022-12-13T05:18:21;28.6;;;16.8;;
44126;SDS011;29786;50.798;7.302;2022-12-13T05:19:21;34.2;;;18.6;;
44126;SDS011;29786;50.798;7.302;2022-12-13T05:20:21;30.9;;;17.4;;
44126;SDS011;29786;50.798;7.302;2022-12-13T05:21:21;30;;;19;;
44126;SDS011;29786;50.798;7.302;2022-12-13T05:22:21;33.8;;;19;;
44126;SDS011;29786;50.798;7.302;2022-12-13T05:23:22;31.9;;;17.8;;
44126;SDS011;29786;50.798;7.302;2022-12-13T05:24:21;31.2;;;18.2;;
44126;SDS011;29786;50.798;7.302;2022-12-13T05:25:21;28.7;;;17;;
44126;SDS011;29786;50.798;7.302;2022-12-13T05:26:21;28;;;17;;
44126;SDS011;29786;50.798;7.302;2022-12-13T05:27:21;30.5;;;17.9;;
44126;SDS011;29786;50.798;7.302;2022-12-13T05:28:21;31.9;;;18.8;;
44126;SDS011;29786;50.798;7.302;2022-12-13T05:29:21;29.7;;;18.4;;
44126;SDS011;29786;50.798;7.302;2022-12-13T05:30:21;31.6;;;18.8;;
44126;SDS011;29786;50.798;7.302;2022-12-13T05:31:21;30.4;;;18.7;;
44126;SDS011;29786;50.798;7.302;2022-12-13T05:32:21;31.6;;;17.8;;
44126;SDS011;29786;50.798;7.302;2022-12-13T05:33:22;31.5;;;18.5;;
44126;SDS011;29786;50.798;7.302;2022-12-13T05:34:21;30.1;;;17.9;;
44126;SDS011;29786;50.798;7.302;2022-12-13T05:35:21;28.8;;;17.9;;
44126;SDS011;29786;50.798;7.302;2022-12-13T05:36:21;27.6;;;17.5;;
44126;SDS011;29786;50.798;7.302;2022-12-13T05:37:21;32.3;;;17.6;;
44126;SDS011;29786;50.798;7.302;2022-12-13T05:38:21;28.1;;;17.2;;
44126;SDS011;29786;50.798;7.302;2022-12-13T05:39:21;29.4;;;16.9;;
44126;SDS011;29786;50.798;7.302;2022-12-13T05:40:22;28.8;;;18.1;;
44126;SDS011;29786;50.798;7.302;2022-12-13T05:41:21;29.1;;;17.6;;
44126;SDS011;29786;50.798;7.302;2022-12-13T05:42:21;27.6;;;16.7;;
44126;SDS011;29786;50.798;7.302;2022-12-13T05:43:21;30.1;;;18.2;;
44126;SDS011;29786;50.798;7.302;2022-12-13T05:44:21;30.7;;;17.9;;
44126;SDS011;29786;50.798;7.302;2022-12-13T05:45:21;30.3;;;18.5;;
44126;SDS011;29786;50.798;7.302;2022-12-13T05:46:21;32;;;18.5;;
44126;SDS011;29786;50.798;7.302;2022-12-13T05:47:21;32.5;;;18.4;;
44126;SDS011;29786;50.798;7.302;2022-12-13T05:48:21;32.4;;;20.1;;
44126;SDS011;29786;50.798;7.302;2022-12-13T05:49:21;29.1;;;18.5;;
44126;SDS011;29786;50.798;7.302;2022-12-13T05:50:21;30.4;;;18.6;;
44126;SDS011;29786;50.798;7.302;2022-12-13T05:51:21;30;;;18.1;;
44126;SDS011;29786;50.798;7.302;2022-12-13T05:52:21;33.1;;;18.9;;
44126;SDS011;29786;50.798;7.302;2022-12-13T05:53:21;29.8;;;17.8;;
44126;SDS011;29786;50.798;7.302;2022-12-13T05:54:21;32.1;;;20.1;;
44126;SDS011;29786;50.798;7.302;2022-12-13T05:55:21;31.9;;;19.5;;
44126;SDS011;29786;50.798;7.302;2022-12-13T05:56:21;28.3;;;18.8;;
44126;SDS011;29786;50.798;7.302;2022-12-13T05:57:21;38.3;;;23.7;;
44126;SDS011;29786;50.798;7.302;2022-12-13T05:58:21;30.4;;;18.9;;
44126;SDS011;29786;50.798;7.302;2022-12-13T05:59:21;34.3;;;19.8;;
44126;SDS011;29786;50.798;7.302;2022-12-13T06:00:21;33.6;;;19.8;;
44126;SDS011;29786;50.798;7.302;2022-12-13T06:01:21;29.7;;;18.4;;
44126;SDS011;29786;50.798;7.302;2022-12-13T06:02:21;29.2;;;18.4;;
44126;SDS011;29786;50.798;7.302;2022-12-13T06:03:21;29.1;;;17.7;;
44126;SDS011;29786;50.798;7.302;2022-12-13T06:04:21;30.1;;;18.7;;
44126;SDS011;29786;50.798;7.302;2022-12-13T06:05:21;28.8;;;17.7;;
44126;SDS011;29786;50.798;7.302;2022-12-13T06:06:21;32.3;;;18.8;;